sensor_id;sensor_type;location;lat;lon;timestamp;temperature;humidity
796;DHT22;381;48.770;9.188;2023-07-02T00:00:53;19.50;99.90
796;DHT22;381;48.770;9.188;2023-07-02T00:05:55;19.60;99.90
796;DHT22;381;48.770;9.188;2023-07-02T00:10:59;19.70;99.90
796;DHT22;381;48.770;9.188;2023-07-02T00:16:01;19.70;99.90
796;DHT22;381;48.770;9.188;2023-07-02T00:21:05;19.80;99.90
796;DHT22;381;48.770;9.188;2023-07-02T00:26:09;19.90;99.90
796;DHT22;381;48.770;9.188;2023-07-02T00:31:11;19.90;99.90
796;DHT22;381;48.770;9.188;2023-07-02T00:36:13;19.90;99.90
796;DHT22;381;48.770;9.188;2023-07-02T00:41:17;19.90;99.90
796;DHT22;381;48.770;9.188;2023-07-02T00:46:21;19.90;99.90
796;DHT22;381;48.770;9.188;2023-07-02T00:51:27;19.90;99.90
796;DHT22;381;48.770;9.188;2023-07-02T00:56:31;20.00;99.90
796;DHT22;381;48.770;9.188;2023-07-02T01:01:33;20.00;99.90
796;DHT22;381;48.770;9.188;2023-07-02T01:06:39;20.00;99.90
796;DHT22;381;48.770;9.188;2023-07-02T01:11:45;20.10;99.90
796;DHT22;381;48.770;9.188;2023-07-02T01:16:48;20.10;99.90
796;DHT22;381;48.770;9.188;2023-07-02T01:21:53;20.10;99.90
796;DHT22;381;48.770;9.188;2023-07-02T01:26:55;20.10;99.90
796;DHT22;381;48.770;9.188;2023-07-02T01:31:57;20.10;99.90
796;DHT22;381;48.770;9.188;2023-07-02T01:37:00;20.10;99.90
796;DHT22;381;48.770;9.188;2023-07-02T01:42:10;20.00;99.90
796;DHT22;381;48.770;9.188;2023-07-02T01:47:12;20.00;99.90
796;DHT22;381;48.770;9.188;2023-07-02T01:52:17;19.90;99.90
796;DHT22;381;48.770;9.188;2023-07-02T01:57:20;19.80;99.90
796;DHT22;381;48.770;9.188;2023-07-02T02:02:22;19.70;99.90
796;DHT22;381;48.770;9.188;2023-07-02T02:07:25;19.60;99.90
796;DHT22;381;48.770;9.188;2023-07-02T02:12:27;19.50;99.90
796;DHT22;381;48.770;9.188;2023-07-02T02:17:31;19.50;99.90
796;DHT22;381;48.770;9.188;2023-07-02T02:22:36;19.40;99.90
796;DHT22;381;48.770;9.188;2023-07-02T02:27:38;19.40;99.90
796;DHT22;381;48.770;9.188;2023-07-02T02:32:40;19.40;99.90
796;DHT22;381;48.770;9.188;2023-07-02T02:37:46;19.40;99.90
796;DHT22;381;48.770;9.188;2023-07-02T02:42:48;19.40;99.90
796;DHT22;381;48.770;9.188;2023-07-02T02:47:50;19.40;99.90
796;DHT22;381;48.770;9.188;2023-07-02T02:52:54;19.40;99.90
796;DHT22;381;48.770;9.188;2023-07-02T02:57:56;19.50;99.90
796;DHT22;381;48.770;9.188;2023-07-02T03:02:58;19.60;99.90
796;DHT22;381;48.770;9.188;2023-07-02T03:08:02;19.60;99.90
796;DHT22;381;48.770;9.188;2023-07-02T03:13:04;19.70;99.90
796;DHT22;381;48.770;9.188;2023-07-02T03:18:06;19.80;99.90
796;DHT22;381;48.770;9.188;2023-07-02T03:23:09;19.90;99.90
796;DHT22;381;48.770;9.188;2023-07-02T03:28:12;19.90;99.90
796;DHT22;381;48.770;9.188;2023-07-02T03:33:14;19.90;99.90
796;DHT22;381;48.770;9.188;2023-07-02T03:38:17;19.90;99.90
796;DHT22;381;48.770;9.188;2023-07-02T03:43:20;19.80;99.90
796;DHT22;381;48.770;9.188;2023-07-02T03:48:22;19.70;99.90
796;DHT22;381;48.770;9.188;2023-07-02T03:53:25;19.60;99.90
796;DHT22;381;48.770;9.188;2023-07-02T03:58:27;19.60;99.90
796;DHT22;381;48.770;9.188;2023-07-02T04:03:30;19.50;99.90
796;DHT22;381;48.770;9.188;2023-07-02T04:08:33;19.50;99.90
796;DHT22;381;48.770;9.188;2023-07-02T04:13:35;19.50;99.90
796;DHT22;381;48.770;9.188;2023-07-02T04:18:38;19.50;99.90
796;DHT22;381;48.770;9.188;2023-07-02T04:23:41;19.50;99.90
796;DHT22;381;48.770;9.188;2023-07-02T04:28:43;19.50;99.90
796;DHT22;381;48.770;9.188;2023-07-02T04:33:45;19.50;99.90
796;DHT22;381;48.770;9.188;2023-07-02T04:38:49;19.60;99.90
796;DHT22;381;48.770;9.188;2023-07-02T04:43:51;19.60;99.90
796;DHT22;381;48.770;9.188;2023-07-02T04:48:53;19.60;99.90
796;DHT22;381;48.770;9.188;2023-07-02T04:53:56;19.60;99.90
796;DHT22;381;48.770;9.188;2023-07-02T04:58:58;19.60;99.90
796;DHT22;381;48.770;9.188;2023-07-02T05:04:00;19.60;99.90
796;DHT22;381;48.770;9.188;2023-07-02T05:09:04;19.60;99.90
796;DHT22;381;48.770;9.188;2023-07-02T05:14:06;19.70;99.90
796;DHT22;381;48.770;9.188;2023-07-02T05:19:08;19.80;99.90
796;DHT22;381;48.770;9.188;2023-07-02T05:24:12;19.90;99.90
796;DHT22;381;48.770;9.188;2023-07-02T05:29:14;20.00;99.90
796;DHT22;381;48.770;9.188;2023-07-02T05:34:16;20.00;99.90
796;DHT22;381;48.770;9.188;2023-07-02T05:39:20;20.10;99.90
796;DHT22;381;48.770;9.188;2023-07-02T05:44:23;20.20;99.90
796;DHT22;381;48.770;9.188;2023-07-02T05:49:25;20.30;99.90
796;DHT22;381;48.770;9.188;2023-07-02T05:54:29;20.30;99.90
796;DHT22;381;48.770;9.188;2023-07-02T05:59:31;20.20;99.90
796;DHT22;381;48.770;9.188;2023-07-02T06:04:33;20.20;99.90
796;DHT22;381;48.770;9.188;2023-07-02T06:09:37;20.10;99.90
796;DHT22;381;48.770;9.188;2023-07-02T06:14:39;20.10;99.90
796;DHT22;381;48.770;9.188;2023-07-02T06:19:41;20.10;99.90
796;DHT22;381;48.770;9.188;2023-07-02T06:24:44;20.20;99.90
796;DHT22;381;48.770;9.188;2023-07-02T06:29:46;20.20;99.90
796;DHT22;381;48.770;9.188;2023-07-02T06:34:48;20.30;99.90
796;DHT22;381;48.770;9.188;2023-07-02T06:39:52;20.40;98.60
796;DHT22;381;48.770;9.188;2023-07-02T06:44:54;20.70;97.40
796;DHT22;381;48.770;9.188;2023-07-02T06:49:56;21.00;97.70
796;DHT22;381;48.770;9.188;2023-07-02T06:55:00;21.20;96.90
796;DHT22;381;48.770;9.188;2023-07-02T07:00:02;21.30;95.70
796;DHT22;381;48.770;9.188;2023-07-02T07:05:06;21.40;95.40
796;DHT22;381;48.770;9.188;2023-07-02T07:10:09;21.50;94.60
796;DHT22;381;48.770;9.188;2023-07-02T07:15:12;21.50;95.00
796;DHT22;381;48.770;9.188;2023-07-02T07:20:14;21.80;94.90
796;DHT22;381;48.770;9.188;2023-07-02T07:25:17;22.00;94.20
796;DHT22;381;48.770;9.188;2023-07-02T07:30:19;22.20;94.10
796;DHT22;381;48.770;9.188;2023-07-02T07:35:23;22.40;91.50
796;DHT22;381;48.770;9.188;2023-07-02T07:40:26;22.50;91.90
796;DHT22;381;48.770;9.188;2023-07-02T07:45:28;22.50;90.60
796;DHT22;381;48.770;9.188;2023-07-02T07:50:31;22.70;89.10
796;DHT22;381;48.770;9.188;2023-07-02T07:55:35;22.80;88.60
796;DHT22;381;48.770;9.188;2023-07-02T08:00:37;23.00;86.50
796;DHT22;381;48.770;9.188;2023-07-02T08:05:39;23.10;86.20
796;DHT22;381;48.770;9.188;2023-07-02T08:10:43;23.20;86.00
796;DHT22;381;48.770;9.188;2023-07-02T08:15:46;23.50;85.20
796;DHT22;381;48.770;9.188;2023-07-02T08:20:48;23.80;83.80
796;DHT22;381;48.770;9.188;2023-07-02T08:25:51;24.00;83.70
796;DHT22;381;48.770;9.188;2023-07-02T08:30:54;24.50;80.70
796;DHT22;381;48.770;9.188;2023-07-02T08:35:56;24.60;79.50
796;DHT22;381;48.770;9.188;2023-07-02T08:41:00;24.70;78.40
796;DHT22;381;48.770;9.188;2023-07-02T08:46:02;24.80;76.20
796;DHT22;381;48.770;9.188;2023-07-02T08:51:04;25.10;75.70
796;DHT22;381;48.770;9.188;2023-07-02T08:56:08;25.20;74.10
796;DHT22;381;48.770;9.188;2023-07-02T09:01:11;25.50;72.40
796;DHT22;381;48.770;9.188;2023-07-02T09:06:16;25.70;72.70
796;DHT22;381;48.770;9.188;2023-07-02T09:11:20;26.20;71.50
796;DHT22;381;48.770;9.188;2023-07-02T09:16:23;26.70;68.00
796;DHT22;381;48.770;9.188;2023-07-02T09:21:26;26.70;64.50
796;DHT22;381;48.770;9.188;2023-07-02T09:26:30;26.60;64.60
796;DHT22;381;48.770;9.188;2023-07-02T09:31:43;26.60;66.50
796;DHT22;381;48.770;9.188;2023-07-02T09:36:45;27.10;67.40
796;DHT22;381;48.770;9.188;2023-07-02T09:41:49;27.40;65.00
796;DHT22;381;48.770;9.188;2023-07-02T09:46:58;28.10;63.40
796;DHT22;381;48.770;9.188;2023-07-02T09:52:04;28.80;59.50
796;DHT22;381;48.770;9.188;2023-07-02T09:57:08;29.60;58.00
796;DHT22;381;48.770;9.188;2023-07-02T10:02:10;30.30;57.20
796;DHT22;381;48.770;9.188;2023-07-02T10:07:26;30.60;57.20
796;DHT22;381;48.770;9.188;2023-07-02T10:12:30;32.20;55.30
796;DHT22;381;48.770;9.188;2023-07-02T10:17:33;33.60;52.80
796;DHT22;381;48.770;9.188;2023-07-02T10:22:42;32.90;51.60
796;DHT22;381;48.770;9.188;2023-07-02T10:27:46;32.70;53.00
796;DHT22;381;48.770;9.188;2023-07-02T10:32:49;32.30;51.10
796;DHT22;381;48.770;9.188;2023-07-02T10:37:51;31.20;51.50
796;DHT22;381;48.770;9.188;2023-07-02T10:42:54;30.20;53.20
796;DHT22;381;48.770;9.188;2023-07-02T10:47:56;29.10;55.10
796;DHT22;381;48.770;9.188;2023-07-02T10:52:58;28.40;56.00
796;DHT22;381;48.770;9.188;2023-07-02T10:58:06;28.00;57.10
796;DHT22;381;48.770;9.188;2023-07-02T11:03:16;27.70;57.60
796;DHT22;381;48.770;9.188;2023-07-02T11:08:19;27.20;58.40
796;DHT22;381;48.770;9.188;2023-07-02T11:13:23;26.90;58.00
796;DHT22;381;48.770;9.188;2023-07-02T11:18:30;26.60;58.30
796;DHT22;381;48.770;9.188;2023-07-02T11:23:34;26.30;59.20
796;DHT22;381;48.770;9.188;2023-07-02T11:28:49;26.10;58.70
796;DHT22;381;48.770;9.188;2023-07-02T11:33:51;25.90;58.50
796;DHT22;381;48.770;9.188;2023-07-02T11:38:55;25.70;58.20
796;DHT22;381;48.770;9.188;2023-07-02T11:43:58;25.50;58.90
796;DHT22;381;48.770;9.188;2023-07-02T11:49:01;25.50;57.50
796;DHT22;381;48.770;9.188;2023-07-02T11:54:03;25.50;57.90
796;DHT22;381;48.770;9.188;2023-07-02T11:59:07;25.50;58.50
796;DHT22;381;48.770;9.188;2023-07-02T12:04:10;25.50;59.40
796;DHT22;381;48.770;9.188;2023-07-02T12:09:13;25.50;58.30
796;DHT22;381;48.770;9.188;2023-07-02T12:14:16;25.40;58.70
796;DHT22;381;48.770;9.188;2023-07-02T12:19:18;25.20;57.70
796;DHT22;381;48.770;9.188;2023-07-02T12:24:20;25.10;57.30
796;DHT22;381;48.770;9.188;2023-07-02T12:29:24;25.10;56.70
796;DHT22;381;48.770;9.188;2023-07-02T12:34:26;25.10;57.60
796;DHT22;381;48.770;9.188;2023-07-02T12:39:30;25.00;58.50
796;DHT22;381;48.770;9.188;2023-07-02T12:44:33;25.00;58.60
796;DHT22;381;48.770;9.188;2023-07-02T12:49:35;25.00;56.30
796;DHT22;381;48.770;9.188;2023-07-02T12:54:37;24.90;57.60
796;DHT22;381;48.770;9.188;2023-07-02T12:59:41;24.90;57.10
796;DHT22;381;48.770;9.188;2023-07-02T13:04:43;24.80;57.20
796;DHT22;381;48.770;9.188;2023-07-02T13:09:45;24.80;56.50
796;DHT22;381;48.770;9.188;2023-07-02T13:14:48;24.80;57.80
796;DHT22;381;48.770;9.188;2023-07-02T13:19:50;24.80;57.90
796;DHT22;381;48.770;9.188;2023-07-02T13:24:53;24.80;57.60
796;DHT22;381;48.770;9.188;2023-07-02T13:29:56;24.80;57.90
796;DHT22;381;48.770;9.188;2023-07-02T13:34:58;24.80;56.10
796;DHT22;381;48.770;9.188;2023-07-02T13:40:01;24.80;55.20
796;DHT22;381;48.770;9.188;2023-07-02T13:45:07;24.80;56.30
796;DHT22;381;48.770;9.188;2023-07-02T13:50:10;24.80;57.20
796;DHT22;381;48.770;9.188;2023-07-02T13:55:12;24.80;56.70
796;DHT22;381;48.770;9.188;2023-07-02T14:00:16;24.80;55.10
796;DHT22;381;48.770;9.188;2023-07-02T14:05:19;24.80;56.10
796;DHT22;381;48.770;9.188;2023-07-02T14:10:21;24.80;55.50
796;DHT22;381;48.770;9.188;2023-07-02T14:15:25;24.90;55.10
796;DHT22;381;48.770;9.188;2023-07-02T14:20:28;24.80;56.90
796;DHT22;381;48.770;9.188;2023-07-02T14:25:30;24.80;56.40
796;DHT22;381;48.770;9.188;2023-07-02T14:30:34;24.80;55.60
796;DHT22;381;48.770;9.188;2023-07-02T14:35:36;24.70;56.70
796;DHT22;381;48.770;9.188;2023-07-02T14:40:38;24.70;56.40
796;DHT22;381;48.770;9.188;2023-07-02T14:45:48;24.70;57.80
796;DHT22;381;48.770;9.188;2023-07-02T14:50:52;24.80;56.80
796;DHT22;381;48.770;9.188;2023-07-02T14:55:55;24.90;56.30
796;DHT22;381;48.770;9.188;2023-07-02T15:00:59;24.90;57.00
796;DHT22;381;48.770;9.188;2023-07-02T15:06:06;24.90;57.80
796;DHT22;381;48.770;9.188;2023-07-02T15:11:09;25.00;56.50
796;DHT22;381;48.770;9.188;2023-07-02T15:16:13;25.00;56.70
796;DHT22;381;48.770;9.188;2023-07-02T15:21:15;25.10;55.90
796;DHT22;381;48.770;9.188;2023-07-02T15:26:19;25.10;56.40
796;DHT22;381;48.770;9.188;2023-07-02T15:31:22;25.10;58.60
796;DHT22;381;48.770;9.188;2023-07-02T15:36:24;25.10;59.10
796;DHT22;381;48.770;9.188;2023-07-02T15:41:26;25.00;58.40
796;DHT22;381;48.770;9.188;2023-07-02T15:46:30;25.00;58.60
796;DHT22;381;48.770;9.188;2023-07-02T15:51:33;25.00;56.60
796;DHT22;381;48.770;9.188;2023-07-02T15:56:37;24.90;57.60
796;DHT22;381;48.770;9.188;2023-07-02T16:01:40;24.80;58.20
796;DHT22;381;48.770;9.188;2023-07-02T16:06:45;24.80;57.80
796;DHT22;381;48.770;9.188;2023-07-02T16:11:47;24.80;58.80
796;DHT22;381;48.770;9.188;2023-07-02T16:16:51;24.80;57.30
796;DHT22;381;48.770;9.188;2023-07-02T16:21:54;24.80;56.80
796;DHT22;381;48.770;9.188;2023-07-02T16:26:57;24.80;58.30
796;DHT22;381;48.770;9.188;2023-07-02T16:32:00;24.80;58.60
796;DHT22;381;48.770;9.188;2023-07-02T16:37:03;24.80;57.00
796;DHT22;381;48.770;9.188;2023-07-02T16:42:06;24.70;58.40
796;DHT22;381;48.770;9.188;2023-07-02T16:47:09;24.70;57.70
796;DHT22;381;48.770;9.188;2023-07-02T16:52:11;24.70;59.00
796;DHT22;381;48.770;9.188;2023-07-02T16:57:14;24.60;58.10
796;DHT22;381;48.770;9.188;2023-07-02T17:02:17;24.50;59.90
796;DHT22;381;48.770;9.188;2023-07-02T17:07:20;24.50;58.70
796;DHT22;381;48.770;9.188;2023-07-02T17:12:22;24.50;58.80
796;DHT22;381;48.770;9.188;2023-07-02T17:17:26;24.50;58.30
796;DHT22;381;48.770;9.188;2023-07-02T17:22:30;24.50;58.60
796;DHT22;381;48.770;9.188;2023-07-02T17:27:33;24.50;57.80
796;DHT22;381;48.770;9.188;2023-07-02T17:32:36;24.50;59.00
796;DHT22;381;48.770;9.188;2023-07-02T17:37:40;24.60;57.80
796;DHT22;381;48.770;9.188;2023-07-02T17:42:43;24.50;58.90
796;DHT22;381;48.770;9.188;2023-07-02T17:47:47;24.40;61.10
796;DHT22;381;48.770;9.188;2023-07-02T17:52:49;24.30;59.90
796;DHT22;381;48.770;9.188;2023-07-02T17:57:51;24.20;60.30
796;DHT22;381;48.770;9.188;2023-07-02T18:02:55;24.20;60.80
796;DHT22;381;48.770;9.188;2023-07-02T18:07:57;24.20;60.80
796;DHT22;381;48.770;9.188;2023-07-02T18:12:59;24.20;59.60
796;DHT22;381;48.770;9.188;2023-07-02T18:18:02;24.20;58.90
796;DHT22;381;48.770;9.188;2023-07-02T18:23:05;24.10;59.10
796;DHT22;381;48.770;9.188;2023-07-02T18:28:09;24.00;58.30
796;DHT22;381;48.770;9.188;2023-07-02T18:33:13;24.00;61.10
796;DHT22;381;48.770;9.188;2023-07-02T18:38:16;23.90;60.00
796;DHT22;381;48.770;9.188;2023-07-02T18:43:19;23.90;58.60
796;DHT22;381;48.770;9.188;2023-07-02T18:48:22;23.80;59.40
796;DHT22;381;48.770;9.188;2023-07-02T18:53:26;23.80;58.90
796;DHT22;381;48.770;9.188;2023-07-02T18:58:29;23.70;60.60
796;DHT22;381;48.770;9.188;2023-07-02T19:03:33;23.60;59.10
796;DHT22;381;48.770;9.188;2023-07-02T19:08:36;23.50;59.30
796;DHT22;381;48.770;9.188;2023-07-02T19:13:39;23.40;60.50
796;DHT22;381;48.770;9.188;2023-07-02T19:18:42;23.40;61.60
796;DHT22;381;48.770;9.188;2023-07-02T19:23:44;23.30;62.80
796;DHT22;381;48.770;9.188;2023-07-02T19:28:46;23.20;67.70
796;DHT22;381;48.770;9.188;2023-07-02T19:33:50;23.20;64.60
796;DHT22;381;48.770;9.188;2023-07-02T19:38:52;23.10;62.30
796;DHT22;381;48.770;9.188;2023-07-02T19:43:54;23.00;63.60
796;DHT22;381;48.770;9.188;2023-07-02T19:48:58;23.00;67.00
796;DHT22;381;48.770;9.188;2023-07-02T19:54:00;22.90;65.00
796;DHT22;381;48.770;9.188;2023-07-02T19:59:04;22.80;65.00
796;DHT22;381;48.770;9.188;2023-07-02T20:04:19;22.80;68.20
796;DHT22;381;48.770;9.188;2023-07-02T20:09:21;22.70;67.20
796;DHT22;381;48.770;9.188;2023-07-02T20:14:23;22.60;67.90
796;DHT22;381;48.770;9.188;2023-07-02T20:19:28;22.60;68.60
796;DHT22;381;48.770;9.188;2023-07-02T20:24:30;22.60;68.40
796;DHT22;381;48.770;9.188;2023-07-02T20:29:32;22.50;68.40
796;DHT22;381;48.770;9.188;2023-07-02T20:34:36;22.40;69.80
796;DHT22;381;48.770;9.188;2023-07-02T20:39:38;22.40;68.20
796;DHT22;381;48.770;9.188;2023-07-02T20:44:43;22.40;64.80
796;DHT22;381;48.770;9.188;2023-07-02T20:49:48;22.30;65.50
796;DHT22;381;48.770;9.188;2023-07-02T20:54:52;22.30;67.30
796;DHT22;381;48.770;9.188;2023-07-02T20:59:54;22.30;68.10
796;DHT22;381;48.770;9.188;2023-07-02T21:04:59;22.20;69.30
796;DHT22;381;48.770;9.188;2023-07-02T21:10:02;22.20;65.80
796;DHT22;381;48.770;9.188;2023-07-02T21:15:06;22.20;66.50
796;DHT22;381;48.770;9.188;2023-07-02T21:20:11;22.10;69.20
796;DHT22;381;48.770;9.188;2023-07-02T21:25:14;22.10;67.50
796;DHT22;381;48.770;9.188;2023-07-02T21:30:16;22.10;67.10
796;DHT22;381;48.770;9.188;2023-07-02T21:35:20;22.00;69.80
796;DHT22;381;48.770;9.188;2023-07-02T21:40:22;22.00;68.80
796;DHT22;381;48.770;9.188;2023-07-02T21:45:24;22.00;68.80
796;DHT22;381;48.770;9.188;2023-07-02T21:50:27;21.90;69.20
796;DHT22;381;48.770;9.188;2023-07-02T21:55:30;21.90;70.30
796;DHT22;381;48.770;9.188;2023-07-02T22:00:33;21.80;68.90
796;DHT22;381;48.770;9.188;2023-07-02T22:05:37;21.80;68.30
796;DHT22;381;48.770;9.188;2023-07-02T22:10:39;21.70;69.10
796;DHT22;381;48.770;9.188;2023-07-02T22:15:41;21.60;68.30
796;DHT22;381;48.770;9.188;2023-07-02T22:20:45;21.60;69.80
796;DHT22;381;48.770;9.188;2023-07-02T22:25:48;21.50;69.90
796;DHT22;381;48.770;9.188;2023-07-02T22:30:50;21.40;69.90
796;DHT22;381;48.770;9.188;2023-07-02T22:35:53;21.30;70.40
796;DHT22;381;48.770;9.188;2023-07-02T22:40:55;21.10;70.60
796;DHT22;381;48.770;9.188;2023-07-02T22:45:57;21.00;70.60
796;DHT22;381;48.770;9.188;2023-07-02T22:51:01;20.90;71.30
796;DHT22;381;48.770;9.188;2023-07-02T22:56:13;20.80;71.50
796;DHT22;381;48.770;9.188;2023-07-02T23:01:16;20.70;71.80
796;DHT22;381;48.770;9.188;2023-07-02T23:06:20;20.70;71.70
796;DHT22;381;48.770;9.188;2023-07-02T23:11:23;20.60;71.20
796;DHT22;381;48.770;9.188;2023-07-02T23:16:25;20.50;72.70
796;DHT22;381;48.770;9.188;2023-07-02T23:21:29;20.40;72.00
796;DHT22;381;48.770;9.188;2023-07-02T23:26:31;20.40;72.60
796;DHT22;381;48.770;9.188;2023-07-02T23:31:35;20.30;71.80
796;DHT22;381;48.770;9.188;2023-07-02T23:36:39;20.20;72.80
796;DHT22;381;48.770;9.188;2023-07-02T23:41:45;20.20;72.80
796;DHT22;381;48.770;9.188;2023-07-02T23:46:47;20.20;71.90
796;DHT22;381;48.770;9.188;2023-07-02T23:51:50;20.10;71.50
796;DHT22;381;48.770;9.188;2023-07-02T23:56:52;20.00;71.30
